createdAt,value
2024-03-14T00:03:25.783Z,3.56
2024-03-14T00:08:48.971Z,3.60
2024-03-14T00:14:12.267Z,3.76
2024-03-14T00:19:34.872Z,3.86
2024-03-14T00:24:58.752Z,3.88
2024-03-14T00:30:21.858Z,3.72
2024-03-14T00:35:44.641Z,3.68
2024-03-14T00:41:07.120Z,3.52
2024-03-14T00:46:33.522Z,3.49
2024-03-14T00:51:57.696Z,3.41
2024-03-14T00:57:20.205Z,3.48
2024-03-14T01:02:45.305Z,3.32
2024-03-14T01:08:08.340Z,3.28
2024-03-14T01:13:30.868Z,3.24
2024-03-14T01:18:53.392Z,3.24
2024-03-14T01:24:15.925Z,3.38
2024-03-14T01:29:39.498Z,3.47
2024-03-14T01:35:02.035Z,3.51
2024-03-14T01:40:25.501Z,3.42
2024-03-14T01:45:49.609Z,3.34
2024-03-14T01:51:12.184Z,3.31
2024-03-14T01:56:37.059Z,3.31
2024-03-14T02:01:59.479Z,3.42
2024-03-14T02:07:30.296Z,3.40
2024-03-14T02:12:56.177Z,3.45
2024-03-14T02:18:19.545Z,3.36
2024-03-14T02:23:42.164Z,3.40
2024-03-14T02:29:04.577Z,3.54
2024-03-14T02:34:27.032Z,3.56
2024-03-14T02:39:49.814Z,3.58
2024-03-14T02:45:12.448Z,3.66
2024-03-14T02:50:34.949Z,3.67
2024-03-14T02:55:58.983Z,3.69
2024-03-14T03:01:23.073Z,3.74
2024-03-14T03:06:53.375Z,3.81
2024-03-14T03:12:32.679Z,3.97
2024-03-14T03:17:55.158Z,3.72
2024-03-14T03:23:18.784Z,3.80
2024-03-14T03:28:41.626Z,3.85
2024-03-14T03:34:04.248Z,3.85
2024-03-14T03:39:27.372Z,3.90
2024-03-14T03:44:50.845Z,3.97
2024-03-14T03:50:15.023Z,3.96
2024-03-14T03:55:38.462Z,3.97
2024-03-14T04:01:02.437Z,4.00
2024-03-14T04:06:29.234Z,4.01
2024-03-14T04:11:51.709Z,4.06
2024-03-14T04:17:16.456Z,4.12
2024-03-14T04:22:40.863Z,4.11
2024-03-14T04:28:04.520Z,4.09
2024-03-14T04:33:26.950Z,4.10
2024-03-14T04:38:49.454Z,4.08
2024-03-14T04:44:11.970Z,4.00
2024-03-14T04:49:34.928Z,3.92
2024-03-14T04:54:58.008Z,3.81
2024-03-14T05:00:23.359Z,3.70
2024-03-14T05:05:46.556Z,3.60
2024-03-14T05:11:09.382Z,3.63
2024-03-14T05:16:31.842Z,3.66
2024-03-14T05:21:54.472Z,3.69
2024-03-14T05:27:17.147Z,3.64
2024-03-14T05:32:41.420Z,3.75
2024-03-14T05:38:05.449Z,3.87
2024-03-14T05:43:28.008Z,3.97
2024-03-14T05:48:50.593Z,4.03
2024-03-14T05:54:13.035Z,4.07
2024-03-14T05:59:37.599Z,4.06
2024-03-14T06:05:01.772Z,3.99
2024-03-14T06:10:24.451Z,4.02
2024-03-14T06:15:47.014Z,4.00
2024-03-14T06:21:09.875Z,4.01
2024-03-14T06:26:32.715Z,4.14
2024-03-14T06:31:55.180Z,4.29
2024-03-14T06:37:19.014Z,4.42
2024-03-14T06:42:41.535Z,4.58
2024-03-14T06:48:05.511Z,4.71
2024-03-14T06:53:28.567Z,4.82
2024-03-14T06:58:51.105Z,4.92
2024-03-14T07:04:14.812Z,5.00
2024-03-14T07:09:38.370Z,5.15
2024-03-14T07:15:01.985Z,5.32
2024-03-14T07:20:26.472Z,5.40
2024-03-14T07:25:50.642Z,5.57
2024-03-14T07:31:13.194Z,5.74
2024-03-14T07:36:37.930Z,5.91
2024-03-14T07:42:00.867Z,6.10
2024-03-14T07:52:58.466Z,6.58
2024-03-14T07:58:22.741Z,6.65
2024-03-14T08:03:46.018Z,6.84
2024-03-14T08:09:09.752Z,7.08
2024-03-14T08:14:32.518Z,7.28
2024-03-14T08:19:57.218Z,7.52
2024-03-14T08:25:20.626Z,7.79
2024-03-14T08:30:45.114Z,8.02
2024-03-14T08:36:08.433Z,8.26
2024-03-14T08:41:32.937Z,8.49
2024-03-14T08:46:55.832Z,8.79
2024-03-14T08:52:19.213Z,9.08
2024-03-14T08:57:43.462Z,9.39
2024-03-14T09:03:06.121Z,9.60
2024-03-14T09:08:28.998Z,9.87
2024-03-14T09:13:52.599Z,10.12
2024-03-14T09:19:15.137Z,10.38
2024-03-14T09:24:37.755Z,10.56
2024-03-14T09:30:01.313Z,10.68
2024-03-14T09:35:28.976Z,10.92
2024-03-14T09:40:59.391Z,11.07
2024-03-14T09:46:18.877Z,11.18
2024-03-14T09:51:42.124Z,11.12
2024-03-14T09:57:05.762Z,11.41
2024-03-14T10:02:34.059Z,11.71
2024-03-14T10:07:59.094Z,11.75
2024-03-14T10:13:31.182Z,11.88
2024-03-14T10:19:04.428Z,12.24
2024-03-14T10:24:32.717Z,12.07
2024-03-14T10:29:55.878Z,12.45
2024-03-14T10:35:21.439Z,12.74
2024-03-14T10:40:44.332Z,12.80
2024-03-14T10:46:06.895Z,12.80
2024-03-14T10:51:29.559Z,13.10
2024-03-14T10:56:54.599Z,13.32
2024-03-14T11:02:18.202Z,13.69
2024-03-14T11:07:41.593Z,14.06
2024-03-14T11:13:11.155Z,14.05
2024-03-14T11:18:44.054Z,14.06
2024-03-14T11:24:14.367Z,13.97
2024-03-14T11:29:40.636Z,13.78
2024-03-14T11:35:03.924Z,14.09
2024-03-14T11:40:29.603Z,13.90
2024-03-14T11:45:53.649Z,13.80
2024-03-14T11:51:19.094Z,14.78
2024-03-14T11:56:42.534Z,14.82
2024-03-14T12:02:14.633Z,14.21
2024-03-14T12:07:34.539Z,15.05
2024-03-14T12:12:57.187Z,15.13
2024-03-14T12:18:21.195Z,15.03
2024-03-14T12:23:44.744Z,14.11
2024-03-14T12:29:10.781Z,13.97
2024-03-14T12:34:34.193Z,14.71
2024-03-14T12:40:03.898Z,14.39
2024-03-14T12:45:31.566Z,14.83
2024-03-14T12:50:55.635Z,15.56
2024-03-14T12:56:19.055Z,14.68
2024-03-14T13:01:51.452Z,15.59
2024-03-14T13:07:22.221Z,15.62
2024-03-14T13:12:45.351Z,15.50
2024-03-14T13:18:08.639Z,15.57
2024-03-14T13:23:31.640Z,15.70
2024-03-14T13:28:57.172Z,16.09
2024-03-14T13:34:19.776Z,16.24
2024-03-14T13:39:43.117Z,16.16
2024-03-14T13:45:07.360Z,16.27
2024-03-14T13:50:31.969Z,16.38
2024-03-14T13:55:56.313Z,16.10
2024-03-14T14:01:23.311Z,15.73
2024-03-14T14:06:46.274Z,16.39
2024-03-14T14:12:09.011Z,15.51
2024-03-14T14:17:31.524Z,15.00
2024-03-14T14:22:54.240Z,14.95
2024-03-14T14:28:18.098Z,14.77
2024-03-14T14:33:42.100Z,14.74
2024-03-14T14:39:04.810Z,14.60
2024-03-14T14:44:27.772Z,14.54
2024-03-14T14:49:50.306Z,14.64
2024-03-14T14:55:15.945Z,14.67
2024-03-14T15:00:38.688Z,14.70
2024-03-14T15:06:01.353Z,15.04
2024-03-14T15:11:24.640Z,14.38
2024-03-14T15:16:48.433Z,13.99
2024-03-14T15:22:12.556Z,13.81
2024-03-14T15:27:36.146Z,13.84
2024-03-14T15:33:00.902Z,13.74
2024-03-14T15:38:24.579Z,13.61
2024-03-14T15:43:47.056Z,13.40
2024-03-14T15:49:09.576Z,13.21
2024-03-14T15:54:32.063Z,13.07
2024-03-14T15:59:54.943Z,12.98
2024-03-14T16:05:18.272Z,12.90
2024-03-14T16:10:40.950Z,12.85
2024-03-14T16:16:03.456Z,12.76
2024-03-14T16:21:27.025Z,12.69
2024-03-14T16:26:50.810Z,12.65
2024-03-14T16:32:13.270Z,12.57
2024-03-14T16:37:35.740Z,12.50
2024-03-14T16:43:00.253Z,12.43
2024-03-14T16:48:23.262Z,12.37
2024-03-14T16:53:45.732Z,12.30
2024-03-14T16:59:08.989Z,12.20
2024-03-14T17:04:31.620Z,12.11
2024-03-14T17:09:54.376Z,12.05
2024-03-14T17:15:19.729Z,12.01
2024-03-14T17:20:55.302Z,12.07
2024-03-14T17:26:18.032Z,11.93
2024-03-14T17:31:43.891Z,11.92
2024-03-14T17:37:06.536Z,11.94
2024-03-14T17:42:29.475Z,11.83
2024-03-14T17:47:54.442Z,11.77
2024-03-14T17:53:17.997Z,11.74
2024-03-14T17:58:40.821Z,11.74
2024-03-14T18:04:05.389Z,11.74
2024-03-14T18:09:29.019Z,11.69
2024-03-14T18:14:51.967Z,11.65
2024-03-14T18:20:16.448Z,11.61
2024-03-14T18:25:40.871Z,11.55
2024-03-14T18:31:05.243Z,11.50
2024-03-14T18:36:28.017Z,11.45
2024-03-14T18:41:51.587Z,11.32
2024-03-14T18:47:15.774Z,11.09
2024-03-14T18:52:38.625Z,10.95
2024-03-14T18:58:01.469Z,10.92
2024-03-14T19:03:25.179Z,10.85
2024-03-14T19:08:50.500Z,10.83
2024-03-14T19:14:14.144Z,10.96
2024-03-14T19:19:40.947Z,10.97
2024-03-14T19:25:04.629Z,10.99
2024-03-14T19:30:28.228Z,10.95
2024-03-14T19:41:56.209Z,10.86
2024-03-14T19:47:18.803Z,10.83
2024-03-14T19:52:41.781Z,10.81
2024-03-14T19:58:05.808Z,10.79
2024-03-14T20:03:28.453Z,10.77
2024-03-14T20:08:51.789Z,10.73
2024-03-14T20:14:14.632Z,10.71
2024-03-14T20:19:37.439Z,10.67
2024-03-14T20:25:00.433Z,10.65
2024-03-14T20:30:25.059Z,10.62
2024-03-14T20:35:50.195Z,10.58
2024-03-14T20:46:37.650Z,10.48
2024-03-14T20:52:00.837Z,10.39
2024-03-14T20:57:25.102Z,10.30
2024-03-14T21:02:47.504Z,10.20
2024-03-14T21:13:44.257Z,10.12
2024-03-14T21:19:06.719Z,9.94
2024-03-14T21:24:29.289Z,9.87
2024-03-14T21:29:52.313Z,9.85
2024-03-14T21:35:19.185Z,9.79
2024-03-14T21:40:41.693Z,9.73
2024-03-14T21:46:06.197Z,9.66
2024-03-14T21:51:29.023Z,9.59
2024-03-14T21:56:56.556Z,9.55
2024-03-14T22:02:19.325Z,9.50
2024-03-14T22:07:42.325Z,9.45
2024-03-14T22:13:05.596Z,9.36
2024-03-14T22:18:28.565Z,9.37
2024-03-14T22:23:56.044Z,9.36
2024-03-14T22:29:23.451Z,9.35
2024-03-14T22:34:48.080Z,9.30
2024-03-14T22:40:12.093Z,9.27
2024-03-14T22:45:34.808Z,9.21
2024-03-14T22:51:00.208Z,9.14
2024-03-14T22:56:22.862Z,9.12
2024-03-14T23:01:46.029Z,9.12
2024-03-14T23:07:09.181Z,9.10
2024-03-14T23:12:34.100Z,9.10
2024-03-14T23:17:56.732Z,9.10
2024-03-14T23:23:19.185Z,9.10
2024-03-14T23:28:43.495Z,9.05
2024-03-14T23:34:06.466Z,9.01
2024-03-14T23:39:29.227Z,8.89
2024-03-14T23:44:51.750Z,8.80
2024-03-14T23:55:47.031Z,8.72
